sensor_id;sensor_type;location;lat;lon;timestamp;pressure;altitude;pressure_sealevel;temperature;humidity
61906;BME280;47863;55.766;37.672;2024-01-16T00:01:10;97417.63;;;-1.53;100.00
61906;BME280;47863;55.766;37.672;2024-01-16T00:03:38;97446.75;;;-1.36;100.00
61906;BME280;47863;55.766;37.672;2024-01-16T00:06:03;97460.38;;;-1.23;100.00
61906;BME280;47863;55.766;37.672;2024-01-16T00:08:29;97429.25;;;-1.46;100.00
61906;BME280;47863;55.766;37.672;2024-01-16T00:10:55;97460.94;;;-1.20;100.00
61906;BME280;47863;55.766;37.672;2024-01-16T00:13:20;97452.94;;;-1.28;100.00
61906;BME280;47863;55.766;37.672;2024-01-16T00:15:46;97441.78;;;-1.40;100.00
61906;BME280;47863;55.766;37.672;2024-01-16T00:21:14;97453.31;;;-1.23;100.00
61906;BME280;47863;55.766;37.672;2024-01-16T00:23:40;97454.16;;;-1.22;100.00
61906;BME280;47863;55.766;37.672;2024-01-16T00:26:05;97445.19;;;-1.29;100.00
61906;BME280;47863;55.766;37.672;2024-01-16T00:28:31;97452.63;;;-1.25;100.00
61906;BME280;47863;55.766;37.672;2024-01-16T00:30:57;97412.50;;;-1.45;100.00
61906;BME280;47863;55.766;37.672;2024-01-16T00:33:23;97408.59;;;-1.41;100.00
61906;BME280;47863;55.766;37.672;2024-01-16T00:35:49;97454.69;;;-1.18;100.00
61906;BME280;47863;55.766;37.672;2024-01-16T00:38:15;97424.47;;;-1.32;100.00
61906;BME280;47863;55.766;37.672;2024-01-16T00:40:41;97439.81;;;-1.28;100.00
61906;BME280;47863;55.766;37.672;2024-01-16T00:45:50;97460.78;;;-1.18;100.00
61906;BME280;47863;55.766;37.672;2024-01-16T00:48:16;97466.16;;;-1.10;100.00
61906;BME280;47863;55.766;37.672;2024-01-16T00:50:41;97420.75;;;-1.30;100.00
61906;BME280;47863;55.766;37.672;2024-01-16T00:53:07;97441.63;;;-1.28;100.00
61906;BME280;47863;55.766;37.672;2024-01-16T00:55:51;97452.78;;;-1.16;100.00
61906;BME280;47863;55.766;37.672;2024-01-16T00:58:36;97442.97;;;-1.24;100.00
61906;BME280;47863;55.766;37.672;2024-01-16T01:01:01;97437.59;;;-1.32;100.00
61906;BME280;47863;55.766;37.672;2024-01-16T01:03:27;97451.91;;;-1.17;100.00
61906;BME280;47863;55.766;37.672;2024-01-16T01:06:11;97464.91;;;-1.15;100.00
61906;BME280;47863;55.766;37.672;2024-01-16T01:08:55;97453.59;;;-1.16;100.00
61906;BME280;47863;55.766;37.672;2024-01-16T01:11:21;97414.03;;;-1.42;100.00
61906;BME280;47863;55.766;37.672;2024-01-16T01:13:46;97447.66;;;-1.18;100.00
61906;BME280;47863;55.766;37.672;2024-01-16T01:16:12;97449.44;;;-1.18;100.00
61906;BME280;47863;55.766;37.672;2024-01-16T01:18:37;97443.81;;;-1.24;100.00
61906;BME280;47863;55.766;37.672;2024-01-16T01:21:03;97446.00;;;-1.19;100.00
61906;BME280;47863;55.766;37.672;2024-01-16T01:23:28;97431.22;;;-1.20;100.00
61906;BME280;47863;55.766;37.672;2024-01-16T01:28:44;97443.34;;;-1.19;100.00
61906;BME280;47863;55.766;37.672;2024-01-16T01:31:10;97411.09;;;-1.39;100.00
61906;BME280;47863;55.766;37.672;2024-01-16T01:33:37;97427.50;;;-1.27;100.00
61906;BME280;47863;55.766;37.672;2024-01-16T01:36:02;97436.47;;;-1.20;100.00
61906;BME280;47863;55.766;37.672;2024-01-16T01:38:28;97433.66;;;-1.18;100.00
61906;BME280;47863;55.766;37.672;2024-01-16T01:41:13;97430.38;;;-1.21;100.00
61906;BME280;47863;55.766;37.672;2024-01-16T01:43:38;97424.28;;;-1.21;100.00
61906;BME280;47863;55.766;37.672;2024-01-16T01:49:14;97424.72;;;-1.26;100.00
61906;BME280;47863;55.766;37.672;2024-01-16T01:54:26;97416.06;;;-1.36;100.00
61906;BME280;47863;55.766;37.672;2024-01-16T01:56:52;97430.66;;;-1.24;100.00
61906;BME280;47863;55.766;37.672;2024-01-16T02:02:04;97428.63;;;-1.30;100.00
61906;BME280;47863;55.766;37.672;2024-01-16T02:04:31;97442.81;;;-1.23;100.00
61906;BME280;47863;55.766;37.672;2024-01-16T02:09:41;97442.13;;;-1.25;100.00
61906;BME280;47863;55.766;37.672;2024-01-16T02:12:07;97436.38;;;-1.28;100.00
61906;BME280;47863;55.766;37.672;2024-01-16T02:14:33;97430.00;;;-1.26;100.00
61906;BME280;47863;55.766;37.672;2024-01-16T02:16:59;97432.72;;;-1.17;100.00
61906;BME280;47863;55.766;37.672;2024-01-16T02:19:25;97401.28;;;-1.37;100.00
61906;BME280;47863;55.766;37.672;2024-01-16T02:21:53;97410.50;;;-1.33;100.00
61906;BME280;47863;55.766;37.672;2024-01-16T02:24:20;97412.59;;;-1.36;100.00
61906;BME280;47863;55.766;37.672;2024-01-16T02:26:46;97403.53;;;-1.42;100.00
61906;BME280;47863;55.766;37.672;2024-01-16T02:29:12;97425.00;;;-1.29;100.00
61906;BME280;47863;55.766;37.672;2024-01-16T02:31:38;97441.84;;;-1.22;100.00
61906;BME280;47863;55.766;37.672;2024-01-16T02:34:04;97441.03;;;-1.22;100.00
61906;BME280;47863;55.766;37.672;2024-01-16T02:36:30;97421.69;;;-1.31;100.00
61906;BME280;47863;55.766;37.672;2024-01-16T02:38:56;97436.28;;;-1.18;100.00
61906;BME280;47863;55.766;37.672;2024-01-16T02:41:22;97443.50;;;-1.21;100.00
61906;BME280;47863;55.766;37.672;2024-01-16T02:43:47;97402.97;;;-1.46;100.00
61906;BME280;47863;55.766;37.672;2024-01-16T02:46:14;97441.97;;;-1.13;100.00
61906;BME280;47863;55.766;37.672;2024-01-16T02:48:58;97447.53;;;-1.16;100.00
61906;BME280;47863;55.766;37.672;2024-01-16T02:51:24;97417.97;;;-1.28;100.00
61906;BME280;47863;55.766;37.672;2024-01-16T02:53:49;97448.63;;;-1.19;100.00
61906;BME280;47863;55.766;37.672;2024-01-16T02:58:59;97455.09;;;-1.13;100.00
61906;BME280;47863;55.766;37.672;2024-01-16T03:01:25;97452.59;;;-1.15;100.00
61906;BME280;47863;55.766;37.672;2024-01-16T03:06:53;97418.28;;;-1.41;100.00
61906;BME280;47863;55.766;37.672;2024-01-16T03:09:19;97443.50;;;-1.21;100.00
61906;BME280;47863;55.766;37.672;2024-01-16T03:11:44;97454.84;;;-1.20;100.00
61906;BME280;47863;55.766;37.672;2024-01-16T03:14:10;97444.75;;;-1.25;100.00
61906;BME280;47863;55.766;37.672;2024-01-16T03:16:54;97443.81;;;-1.24;100.00
61906;BME280;47863;55.766;37.672;2024-01-16T03:19:38;97449.88;;;-1.23;100.00
61906;BME280;47863;55.766;37.672;2024-01-16T03:22:04;97452.50;;;-1.23;100.00
61906;BME280;47863;55.766;37.672;2024-01-16T03:24:29;97455.94;;;-1.23;100.00
61906;BME280;47863;55.766;37.672;2024-01-16T03:26:55;97438.31;;;-1.30;100.00
61906;BME280;47863;55.766;37.672;2024-01-16T03:29:21;97435.13;;;-1.34;100.00
61906;BME280;47863;55.766;37.672;2024-01-16T03:31:46;97449.59;;;-1.20;100.00
61906;BME280;47863;55.766;37.672;2024-01-16T03:34:13;97452.22;;;-1.20;100.00
61906;BME280;47863;55.766;37.672;2024-01-16T03:37:16;97462.88;;;-1.22;100.00
61906;BME280;47863;55.766;37.672;2024-01-16T03:39:41;97433.47;;;-1.35;100.00
61906;BME280;47863;55.766;37.672;2024-01-16T03:42:07;97456.34;;;-1.17;100.00
61906;BME280;47863;55.766;37.672;2024-01-16T03:44:33;97457.03;;;-1.15;100.00
61906;BME280;47863;55.766;37.672;2024-01-16T03:46:58;97468.94;;;-1.21;100.00
61906;BME280;47863;55.766;37.672;2024-01-16T03:49:24;97445.88;;;-1.27;100.00
61906;BME280;47863;55.766;37.672;2024-01-16T03:54:34;97450.69;;;-1.23;100.00
61906;BME280;47863;55.766;37.672;2024-01-16T03:57:00;97443.81;;;-1.24;100.00
61906;BME280;47863;55.766;37.672;2024-01-16T03:59:26;97451.84;;;-1.35;100.00
61906;BME280;47863;55.766;37.672;2024-01-16T04:01:51;97442.91;;;-1.42;100.00
61906;BME280;47863;55.766;37.672;2024-01-16T04:04:18;97447.16;;;-1.31;100.00
61906;BME280;47863;55.766;37.672;2024-01-16T04:06:44;97449.50;;;-1.28;100.00
61906;BME280;47863;55.766;37.672;2024-01-16T04:09:11;97452.13;;;-1.28;100.00
61906;BME280;47863;55.766;37.672;2024-01-16T04:11:55;97448.50;;;-1.27;100.00
61906;BME280;47863;55.766;37.672;2024-01-16T04:14:21;97439.72;;;-1.36;100.00
61906;BME280;47863;55.766;37.672;2024-01-16T04:16:47;97447.84;;;-1.29;100.00
61906;BME280;47863;55.766;37.672;2024-01-16T04:19:13;97451.44;;;-1.30;100.00
61906;BME280;47863;55.766;37.672;2024-01-16T04:21:38;97453.09;;;-1.29;100.00
61906;BME280;47863;55.766;37.672;2024-01-16T04:24:04;97443.72;;;-1.42;100.00
61906;BME280;47863;55.766;37.672;2024-01-16T04:26:30;97467.19;;;-1.30;100.00
61906;BME280;47863;55.766;37.672;2024-01-16T04:29:14;97450.59;;;-1.31;100.00
61906;BME280;47863;55.766;37.672;2024-01-16T04:34:24;97429.66;;;-1.50;100.00
61906;BME280;47863;55.766;37.672;2024-01-16T04:37:08;97456.97;;;-1.33;100.00
61906;BME280;47863;55.766;37.672;2024-01-16T04:39:34;97382.91;;;-1.84;100.00
61906;BME280;47863;55.766;37.672;2024-01-16T04:41:59;97431.88;;;-1.55;100.00
61906;BME280;47863;55.766;37.672;2024-01-16T04:44:25;97448.00;;;-1.41;100.00
61906;BME280;47863;55.766;37.672;2024-01-16T04:46:51;97463.91;;;-1.42;100.00
61906;BME280;47863;55.766;37.672;2024-01-16T04:49:16;97479.91;;;-1.35;100.00
61906;BME280;47863;55.766;37.672;2024-01-16T04:51:42;97468.06;;;-1.40;100.00
61906;BME280;47863;55.766;37.672;2024-01-16T04:54:07;97481.03;;;-1.38;100.00
61906;BME280;47863;55.766;37.672;2024-01-16T04:56:33;97471.81;;;-1.42;100.00
61906;BME280;47863;55.766;37.672;2024-01-16T04:58:58;97450.81;;;-1.52;100.00
61906;BME280;47863;55.766;37.672;2024-01-16T05:01:24;97454.13;;;-1.50;100.00
61906;BME280;47863;55.766;37.672;2024-01-16T05:03:50;97447.50;;;-1.54;100.00
61906;BME280;47863;55.766;37.672;2024-01-16T05:06:16;97480.34;;;-1.40;100.00
61906;BME280;47863;55.766;37.672;2024-01-16T05:08:43;97445.03;;;-1.65;100.00
61906;BME280;47863;55.766;37.672;2024-01-16T05:11:09;97485.34;;;-1.47;100.00
61906;BME280;47863;55.766;37.672;2024-01-16T05:13:53;97448.78;;;-1.68;100.00
61906;BME280;47863;55.766;37.672;2024-01-16T05:16:26;97489.91;;;-1.49;100.00
61906;BME280;47863;55.766;37.672;2024-01-16T05:18:53;97449.75;;;-1.69;100.00
61906;BME280;47863;55.766;37.672;2024-01-16T05:21:20;97469.72;;;-1.58;100.00
61906;BME280;47863;55.766;37.672;2024-01-16T05:23:46;97492.66;;;-1.50;100.00
61906;BME280;47863;55.766;37.672;2024-01-16T05:26:11;97483.00;;;-1.50;100.00
61906;BME280;47863;55.766;37.672;2024-01-16T05:31:22;97468.09;;;-1.59;100.00
61906;BME280;47863;55.766;37.672;2024-01-16T05:33:48;97467.09;;;-1.58;100.00
61906;BME280;47863;55.766;37.672;2024-01-16T05:36:14;97476.91;;;-1.50;100.00
61906;BME280;47863;55.766;37.672;2024-01-16T05:38:39;97491.56;;;-1.48;100.00
61906;BME280;47863;55.766;37.672;2024-01-16T05:41:05;97436.88;;;-1.72;100.00
61906;BME280;47863;55.766;37.672;2024-01-16T05:43:31;97430.81;;;-1.72;100.00
61906;BME280;47863;55.766;37.672;2024-01-16T05:45:57;97473.06;;;-1.56;100.00
61906;BME280;47863;55.766;37.672;2024-01-16T05:48:22;97456.91;;;-1.61;100.00
61906;BME280;47863;55.766;37.672;2024-01-16T05:50:48;97433.75;;;-1.75;100.00
61906;BME280;47863;55.766;37.672;2024-01-16T05:53:13;97468.78;;;-1.57;100.00
61906;BME280;47863;55.766;37.672;2024-01-16T05:55:39;97473.75;;;-1.54;100.00
61906;BME280;47863;55.766;37.672;2024-01-16T06:03:32;97478.03;;;-1.53;100.00
61906;BME280;47863;55.766;37.672;2024-01-16T06:05:58;97472.50;;;-1.50;100.00
61906;BME280;47863;55.766;37.672;2024-01-16T06:08:42;97479.41;;;-1.49;100.00
61906;BME280;47863;55.766;37.672;2024-01-16T06:11:08;97465.34;;;-1.57;100.00
61906;BME280;47863;55.766;37.672;2024-01-16T06:13:33;97451.94;;;-1.74;100.00
61906;BME280;47863;55.766;37.672;2024-01-16T06:15:59;97463.84;;;-1.70;100.00
61906;BME280;47863;55.766;37.672;2024-01-16T06:18:25;97495.44;;;-1.52;100.00
61906;BME280;47863;55.766;37.672;2024-01-16T06:20:50;97498.22;;;-1.53;100.00
61906;BME280;47863;55.766;37.672;2024-01-16T06:23:16;97505.38;;;-1.46;100.00
61906;BME280;47863;55.766;37.672;2024-01-16T06:25:41;97501.66;;;-1.53;100.00
61906;BME280;47863;55.766;37.672;2024-01-16T06:28:07;97508.28;;;-1.49;100.00
61906;BME280;47863;55.766;37.672;2024-01-16T06:30:33;97505.66;;;-1.49;100.00
61906;BME280;47863;55.766;37.672;2024-01-16T06:32:59;97468.38;;;-1.62;100.00
61906;BME280;47863;55.766;37.672;2024-01-16T06:35:25;97456.50;;;-1.66;100.00
61906;BME280;47863;55.766;37.672;2024-01-16T06:37:50;97480.66;;;-1.53;100.00
61906;BME280;47863;55.766;37.672;2024-01-16T06:40:16;97492.81;;;-1.52;100.00
61906;BME280;47863;55.766;37.672;2024-01-16T06:42:43;97490.03;;;-1.50;100.00
61906;BME280;47863;55.766;37.672;2024-01-16T06:48:12;97512.84;;;-1.51;100.00
61906;BME280;47863;55.766;37.672;2024-01-16T06:50:56;97500.41;;;-1.49;100.00
61906;BME280;47863;55.766;37.672;2024-01-16T06:53:22;97496.84;;;-1.57;100.00
61906;BME280;47863;55.766;37.672;2024-01-16T06:55:48;97503.72;;;-1.56;100.00
61906;BME280;47863;55.766;37.672;2024-01-16T06:58:14;97495.72;;;-1.65;100.00
61906;BME280;47863;55.766;37.672;2024-01-16T07:00:40;97490.34;;;-1.63;100.00
61906;BME280;47863;55.766;37.672;2024-01-16T07:03:07;97460.13;;;-1.77;100.00
61906;BME280;47863;55.766;37.672;2024-01-16T07:05:32;97499.59;;;-1.59;100.00
61906;BME280;47863;55.766;37.672;2024-01-16T07:07:58;97498.34;;;-1.55;100.00
61906;BME280;47863;55.766;37.672;2024-01-16T07:10:24;97483.16;;;-1.71;100.00
61906;BME280;47863;55.766;37.672;2024-01-16T07:12:50;97508.47;;;-1.70;100.00
61906;BME280;47863;55.766;37.672;2024-01-16T07:15:17;97520.88;;;-1.62;100.00
61906;BME280;47863;55.766;37.672;2024-01-16T07:17:43;97519.22;;;-1.63;100.00
61906;BME280;47863;55.766;37.672;2024-01-16T07:20:09;97515.09;;;-1.56;100.00
61906;BME280;47863;55.766;37.672;2024-01-16T07:22:37;97523.66;;;-1.54;100.00
61906;BME280;47863;55.766;37.672;2024-01-16T07:25:02;97522.25;;;-1.58;100.00
61906;BME280;47863;55.766;37.672;2024-01-16T07:27:29;97512.84;;;-1.61;100.00
61906;BME280;47863;55.766;37.672;2024-01-16T07:29:54;97512.16;;;-1.63;100.00
61906;BME280;47863;55.766;37.672;2024-01-16T07:32:20;97502.50;;;-1.62;100.00
61906;BME280;47863;55.766;37.672;2024-01-16T07:34:46;97512.16;;;-1.63;100.00
61906;BME280;47863;55.766;37.672;2024-01-16T07:37:11;97506.78;;;-1.61;100.00
61906;BME280;47863;55.766;37.672;2024-01-16T07:39:55;97518.53;;;-1.55;100.00
61906;BME280;47863;55.766;37.672;2024-01-16T07:42:21;97490.34;;;-1.73;100.00
61906;BME280;47863;55.766;37.672;2024-01-16T07:45:06;97505.28;;;-1.64;100.00
61906;BME280;47863;55.766;37.672;2024-01-16T07:47:33;97503.59;;;-1.65;100.00
61906;BME280;47863;55.766;37.672;2024-01-16T07:50:01;97500.16;;;-1.65;100.00
61906;BME280;47863;55.766;37.672;2024-01-16T07:52:30;97457.81;;;-2.09;100.00
61906;BME280;47863;55.766;37.672;2024-01-16T07:55:14;97509.00;;;-1.66;100.00
61906;BME280;47863;55.766;37.672;2024-01-16T07:57:40;97472.25;;;-1.86;100.00
61906;BME280;47863;55.766;37.672;2024-01-16T08:00:06;97485.13;;;-1.73;100.00
61906;BME280;47863;55.766;37.672;2024-01-16T08:02:37;97496.28;;;-1.61;100.00
61906;BME280;47863;55.766;37.672;2024-01-16T08:05:04;97483.03;;;-1.60;100.00
61906;BME280;47863;55.766;37.672;2024-01-16T08:07:30;97486.75;;;-1.62;100.00
61906;BME280;47863;55.766;37.672;2024-01-16T08:10:14;97441.50;;;-1.84;100.00
61906;BME280;47863;55.766;37.672;2024-01-16T08:12:39;97491.03;;;-1.51;100.00
61906;BME280;47863;55.766;37.672;2024-01-16T08:15:05;97477.22;;;-1.53;100.00
61906;BME280;47863;55.766;37.672;2024-01-16T08:17:50;97478.31;;;-1.56;100.00
61906;BME280;47863;55.766;37.672;2024-01-16T08:20:15;97450.28;;;-1.65;100.00
61906;BME280;47863;55.766;37.672;2024-01-16T08:23:00;97483.81;;;-1.40;100.00
61906;BME280;47863;55.766;37.672;2024-01-16T08:25:25;97475.78;;;-1.38;100.00
61906;BME280;47863;55.766;37.672;2024-01-16T08:27:51;97443.34;;;-1.56;100.00
61906;BME280;47863;55.766;37.672;2024-01-16T08:30:16;97466.41;;;-1.50;100.00
61906;BME280;47863;55.766;37.672;2024-01-16T08:32:42;97477.16;;;-1.34;100.00
61906;BME280;47863;55.766;37.672;2024-01-16T08:35:08;97471.59;;;-1.31;100.00
61906;BME280;47863;55.766;37.672;2024-01-16T08:37:52;97469.28;;;-1.34;100.00
61906;BME280;47863;55.766;37.672;2024-01-16T08:40:18;97468.97;;;-1.31;100.00
61906;BME280;47863;55.766;37.672;2024-01-16T08:42:44;97466.06;;;-1.28;100.00
61906;BME280;47863;55.766;37.672;2024-01-16T08:47:53;97477.72;;;-1.30;100.00
61906;BME280;47863;55.766;37.672;2024-01-16T08:50:19;97461.13;;;-1.41;100.00
61906;BME280;47863;55.766;37.672;2024-01-16T08:52:45;97427.50;;;-1.74;100.00
61906;BME280;47863;55.766;37.672;2024-01-16T08:55:10;97484.63;;;-1.39;100.00
61906;BME280;47863;55.766;37.672;2024-01-16T08:57:39;97472.50;;;-1.50;100.00
61906;BME280;47863;55.766;37.672;2024-01-16T09:00:05;97444.88;;;-1.54;100.00
61906;BME280;47863;55.766;37.672;2024-01-16T09:02:31;97467.75;;;-1.36;100.00
61906;BME280;47863;55.766;37.672;2024-01-16T09:04:57;97462.91;;;-1.31;100.00
61906;BME280;47863;55.766;37.672;2024-01-16T09:07:24;97412.81;;;-1.48;100.00
61906;BME280;47863;55.766;37.672;2024-01-16T09:09:50;97436.88;;;-1.25;100.00
61906;BME280;47863;55.766;37.672;2024-01-16T09:12:16;97438.19;;;-1.11;100.00
61906;BME280;47863;55.766;37.672;2024-01-16T09:14:41;97422.59;;;-1.12;100.00
61906;BME280;47863;55.766;37.672;2024-01-16T09:17:07;97433.00;;;-0.93;100.00
61906;BME280;47863;55.766;37.672;2024-01-16T09:19:33;97441.00;;;-0.85;100.00
61906;BME280;47863;55.766;37.672;2024-01-16T09:21:58;97424.75;;;-0.98;100.00
61906;BME280;47863;55.766;37.672;2024-01-16T09:24:24;97433.78;;;-0.83;100.00
61906;BME280;47863;55.766;37.672;2024-01-16T09:26:49;97439.69;;;-0.71;100.00
61906;BME280;47863;55.766;37.672;2024-01-16T09:29:15;97439.09;;;-0.65;100.00
61906;BME280;47863;55.766;37.672;2024-01-16T09:34:26;97445.09;;;-0.54;100.00
61906;BME280;47863;55.766;37.672;2024-01-16T09:36:51;97437.50;;;-0.57;100.00
61906;BME280;47863;55.766;37.672;2024-01-16T09:39:36;97439.44;;;-0.60;100.00
61906;BME280;47863;55.766;37.672;2024-01-16T09:42:20;97430.66;;;-0.68;100.00
61906;BME280;47863;55.766;37.672;2024-01-16T09:44:48;97433.16;;;-0.67;100.00
61906;BME280;47863;55.766;37.672;2024-01-16T09:47:15;97437.31;;;-0.74;100.00
61906;BME280;47863;55.766;37.672;2024-01-16T09:49:42;97438.25;;;-0.65;100.00
61906;BME280;47863;55.766;37.672;2024-01-16T09:52:08;97419.53;;;-0.80;100.00
61906;BME280;47863;55.766;37.672;2024-01-16T09:54:34;97443.13;;;-0.70;100.00
61906;BME280;47863;55.766;37.672;2024-01-16T09:57:01;97411.78;;;-0.82;100.00
61906;BME280;47863;55.766;37.672;2024-01-16T09:59:29;97431.69;;;-0.79;100.00
61906;BME280;47863;55.766;37.672;2024-01-16T10:01:56;97422.91;;;-0.70;100.00
61906;BME280;47863;55.766;37.672;2024-01-16T10:04:23;97416.97;;;-0.72;100.00
61906;BME280;47863;55.766;37.672;2024-01-16T10:07:07;97427.16;;;-0.59;100.00
61906;BME280;47863;55.766;37.672;2024-01-16T10:09:33;97413.75;;;-0.66;100.00
61906;BME280;47863;55.766;37.672;2024-01-16T10:11:59;97403.09;;;-0.64;100.00
61906;BME280;47863;55.766;37.672;2024-01-16T10:14:25;97426.09;;;-0.48;100.00
61906;BME280;47863;55.766;37.672;2024-01-16T10:17:02;97389.28;;;-0.66;100.00
61906;BME280;47863;55.766;37.672;2024-01-16T10:19:31;97420.91;;;-0.40;100.00
61906;BME280;47863;55.766;37.672;2024-01-16T10:22:06;97419.56;;;-0.44;100.00
61906;BME280;47863;55.766;37.672;2024-01-16T10:27:29;97387.19;;;-0.63;100.00
61906;BME280;47863;55.766;37.672;2024-01-16T10:29:57;97414.28;;;-0.44;100.00
61906;BME280;47863;55.766;37.672;2024-01-16T10:32:33;97414.28;;;-0.44;100.00
61906;BME280;47863;55.766;37.672;2024-01-16T10:35:18;97408.69;;;-0.49;100.00
61906;BME280;47863;55.766;37.672;2024-01-16T10:41:03;97411.44;;;-0.51;100.00
61906;BME280;47863;55.766;37.672;2024-01-16T10:43:29;97402.94;;;-0.63;100.00
61906;BME280;47863;55.766;37.672;2024-01-16T10:46:09;97365.59;;;-0.84;100.00
61906;BME280;47863;55.766;37.672;2024-01-16T10:48:37;97394.44;;;-0.74;100.00
61906;BME280;47863;55.766;37.672;2024-01-16T10:56:36;97381.16;;;-0.91;100.00
61906;BME280;47863;55.766;37.672;2024-01-16T11:01:43;97387.31;;;-0.82;100.00
61906;BME280;47863;55.766;37.672;2024-01-16T11:04:12;97385.50;;;-0.82;100.00
61906;BME280;47863;55.766;37.672;2024-01-16T11:06:38;97372.00;;;-0.87;100.00
61906;BME280;47863;55.766;37.672;2024-01-16T11:09:07;97355.44;;;-0.97;100.00
61906;BME280;47863;55.766;37.672;2024-01-16T11:11:33;97373.72;;;-0.77;100.00
61906;BME280;47863;55.766;37.672;2024-01-16T11:14:03;97371.75;;;-0.75;100.00
61906;BME280;47863;55.766;37.672;2024-01-16T11:16:29;97358.53;;;-0.84;100.00
61906;BME280;47863;55.766;37.672;2024-01-16T11:18:57;97369.50;;;-0.70;100.00
61906;BME280;47863;55.766;37.672;2024-01-16T11:21:23;97354.09;;;-0.83;100.00
61906;BME280;47863;55.766;37.672;2024-01-16T11:23:50;97299.34;;;-1.06;100.00
61906;BME280;47863;55.766;37.672;2024-01-16T11:26:34;97365.59;;;-0.66;100.00
61906;BME280;47863;55.766;37.672;2024-01-16T11:31:54;97332.03;;;-0.90;100.00
61906;BME280;47863;55.766;37.672;2024-01-16T11:37:08;97363.50;;;-0.81;100.00
61906;BME280;47863;55.766;37.672;2024-01-16T11:42:48;97358.72;;;-0.95;100.00
61906;BME280;47863;55.766;37.672;2024-01-16T11:45:48;97350.19;;;-0.97;100.00
61906;BME280;47863;55.766;37.672;2024-01-16T11:48:16;97343.88;;;-1.04;100.00
61906;BME280;47863;55.766;37.672;2024-01-16T11:50:42;97318.00;;;-1.27;100.00
61906;BME280;47863;55.766;37.672;2024-01-16T11:53:08;97346.56;;;-1.14;100.00
61906;BME280;47863;55.766;37.672;2024-01-16T11:55:35;97351.41;;;-1.19;100.00
61906;BME280;47863;55.766;37.672;2024-01-16T12:00:40;97339.56;;;-1.23;100.00
61906;BME280;47863;55.766;37.672;2024-01-16T12:03:08;97322.88;;;-1.32;100.00
61906;BME280;47863;55.766;37.672;2024-01-16T12:05:34;97312.44;;;-1.42;100.00
61906;BME280;47863;55.766;37.672;2024-01-16T12:08:21;97319.03;;;-1.37;100.00
61906;BME280;47863;55.766;37.672;2024-01-16T12:10:47;97323.44;;;-1.28;100.00
61906;BME280;47863;55.766;37.672;2024-01-16T12:13:16;97296.19;;;-1.55;100.00
61906;BME280;47863;55.766;37.672;2024-01-16T12:15:41;97326.19;;;-1.30;100.00
61906;BME280;47863;55.766;37.672;2024-01-16T12:18:07;97328.00;;;-1.30;100.00
61906;BME280;47863;55.766;37.672;2024-01-16T12:20:37;97285.69;;;-1.55;100.00
61906;BME280;47863;55.766;37.672;2024-01-16T12:23:21;97319.59;;;-1.34;100.00
61906;BME280;47863;55.766;37.672;2024-01-16T12:26:06;97319.88;;;-1.37;100.00
61906;BME280;47863;55.766;37.672;2024-01-16T12:31:19;97322.81;;;-1.40;100.00
61906;BME280;47863;55.766;37.672;2024-01-16T12:33:44;97327.19;;;-1.41;100.00
61906;BME280;47863;55.766;37.672;2024-01-16T12:36:10;97292.06;;;-1.57;100.00
61906;BME280;47863;55.766;37.672;2024-01-16T12:38:36;97324.88;;;-1.44;100.00
61906;BME280;47863;55.766;37.672;2024-01-16T12:41:05;97327.94;;;-1.48;100.00
61906;BME280;47863;55.766;37.672;2024-01-16T12:43:32;97318.28;;;-1.48;100.00
61906;BME280;47863;55.766;37.672;2024-01-16T12:45:58;97313.63;;;-1.54;100.00
61906;BME280;47863;55.766;37.672;2024-01-16T12:48:27;97322.59;;;-1.56;100.00
61906;BME280;47863;55.766;37.672;2024-01-16T12:51:00;97324.78;;;-1.52;100.00
61906;BME280;47863;55.766;37.672;2024-01-16T12:53:30;97318.56;;;-1.51;100.00
61906;BME280;47863;55.766;37.672;2024-01-16T12:55:58;97317.47;;;-1.58;100.00
61906;BME280;47863;55.766;37.672;2024-01-16T12:58:36;97308.53;;;-1.65;100.00
61906;BME280;47863;55.766;37.672;2024-01-16T13:03:46;97318.75;;;-1.62;100.00
61906;BME280;47863;55.766;37.672;2024-01-16T13:06:17;97294.66;;;-1.75;100.00
61906;BME280;47863;55.766;37.672;2024-01-16T13:08:44;97312.00;;;-1.65;100.00
61906;BME280;47863;55.766;37.672;2024-01-16T13:11:09;97299.00;;;-1.66;100.00
61906;BME280;47863;55.766;37.672;2024-01-16T13:14:00;97311.84;;;-1.63;100.00
61906;BME280;47863;55.766;37.672;2024-01-16T13:16:28;97305.09;;;-1.66;100.00
61906;BME280;47863;55.766;37.672;2024-01-16T13:21:45;97296.97;;;-1.72;100.00
61906;BME280;47863;55.766;37.672;2024-01-16T13:24:11;97266.22;;;-1.90;100.00
61906;BME280;47863;55.766;37.672;2024-01-16T13:26:56;97296.53;;;-1.68;100.00
61906;BME280;47863;55.766;37.672;2024-01-16T13:29:22;97256.31;;;-1.96;100.00
61906;BME280;47863;55.766;37.672;2024-01-16T13:32:06;97310.75;;;-1.70;100.00
61906;BME280;47863;55.766;37.672;2024-01-16T13:34:31;97312.56;;;-1.71;100.00
61906;BME280;47863;55.766;37.672;2024-01-16T13:36:58;97305.66;;;-1.72;100.00
61906;BME280;47863;55.766;37.672;2024-01-16T13:39:27;97282.09;;;-1.82;100.00
61906;BME280;47863;55.766;37.672;2024-01-16T13:41:53;97300.56;;;-1.73;100.00
61906;BME280;47863;55.766;37.672;2024-01-16T13:44:19;97288.41;;;-1.74;100.00
61906;BME280;47863;55.766;37.672;2024-01-16T13:46:44;97282.09;;;-1.82;100.00
61906;BME280;47863;55.766;37.672;2024-01-16T13:49:10;97296.13;;;-1.73;100.00
61906;BME280;47863;55.766;37.672;2024-01-16T13:51:35;97278.63;;;-1.82;100.00
61906;BME280;47863;55.766;37.672;2024-01-16T13:54:20;97284.97;;;-1.75;100.00
61906;BME280;47863;55.766;37.672;2024-01-16T13:56:45;97288.28;;;-1.73;100.00
61906;BME280;47863;55.766;37.672;2024-01-16T13:59:29;97287.72;;;-1.76;100.00
61906;BME280;47863;55.766;37.672;2024-01-16T14:01:55;97272.16;;;-1.88;100.00
61906;BME280;47863;55.766;37.672;2024-01-16T14:04:39;97287.03;;;-1.78;100.00
61906;BME280;47863;55.766;37.672;2024-01-16T14:07:05;97282.78;;;-1.80;100.00
61906;BME280;47863;55.766;37.672;2024-01-16T14:09:49;97283.06;;;-1.83;100.00